Pottersville, Vermont
Current Conditions -  °F | °C
As of 7:54 PM on Wednesday 22 Oct 2014 (Local Time) from KMVL Reporting Station
Light Rain Light Rain  
Wind Chill: 10°   Ceiling: 3800
Heat Index: 10°   Visibility: 10mi
Dew Point:   Wind: 5mph
Humidity: 71%   Direction: 10°N
Pressure: 30.14"   Gusts: NA
Location:  44.5359°N, 72.4842°W
Report Text: KMVL 222354Z AUTO 01004KT 10SM -RA BKN038 BKN060 OVC090 10/05 A3014 RMK AO2 SLP211 P0000 60000 T01000050 10106 20094 58005
Loading
Personal Weather Stations






























Interactive Weather Map
Tropical Storm Tracking
New forecast layout! Learn more

10-Day Weather Forecast

Advertisements
Track Severe Weather on mobile